Terminal Aerodrome Forecast
Issued by NWS Topeka, KS

Home | Current Version | Previous Version | Text Only | Print | Product List | Glossary On
Versions: 1 2 3 4 5 6 7 8 9 10 11 12 13 14 15 16 17
000
FTUS43 KTOP 051120
TAFTOP
TAF
KTOP 051120Z 0512/0612 17006KT 6SM BR FEW008
     FM051600 18012G22KT P6SM SCT150
     FM060000 VRB03KT P6SM SCT150
     FM060700 34013KT P6SM BKN040=

USA.gov is the U.S. government's official web portal to all federal, state and local government web resources and services.